createdAt,value
2019-02-26T00:03:35.730Z,98124.83
2019-02-26T00:06:04.196Z,98128.93
2019-02-26T00:08:33.489Z,98133.34
2019-02-26T00:11:03.746Z,98132.59
2019-02-26T00:13:34.581Z,98134.27
2019-02-26T00:16:44.583Z,98134.05
2019-02-26T00:19:14.385Z,98144.06
2019-02-26T00:21:45.200Z,98153.77
2019-02-26T00:24:14.604Z,98152.73
2019-02-26T00:26:45.114Z,98157.98
2019-02-26T00:29:13.596Z,98156.00
2019-02-26T00:31:43.406Z,98160.41
2019-02-26T00:34:14.019Z,98160.69
2019-02-26T00:36:42.275Z,98154.13
2019-02-26T00:39:10.703Z,98153.30
2019-02-26T00:41:40.339Z,98148.49
2019-02-26T00:44:09.354Z,98142.61
2019-02-26T00:46:39.469Z,98144.47
2019-02-26T00:49:28.475Z,98141.26
2019-02-26T00:54:31.867Z,98136.05
2019-02-26T00:57:20.536Z,98140.66
2019-02-26T00:59:48.930Z,98138.23
2019-02-26T01:02:17.318Z,98130.25
2019-02-26T01:04:46.764Z,98120.00
2019-02-26T01:07:15.886Z,98109.14
2019-02-26T01:09:44.282Z,98097.98
2019-02-26T01:12:13.812Z,98094.45
2019-02-26T01:14:44.178Z,98085.59
2019-02-26T01:17:14.815Z,98078.30
2019-02-26T01:19:43.154Z,98074.98
2019-02-26T01:22:11.546Z,98072.79
2019-02-26T01:24:39.942Z,98071.03
2019-02-26T01:27:08.354Z,98063.28
2019-02-26T01:29:36.755Z,98059.25
2019-02-26T01:32:08.887Z,98049.12
2019-02-26T01:34:35.307Z,98037.41
2019-02-26T01:37:05.522Z,98038.72
2019-02-26T01:39:35.624Z,98023.80
2019-02-26T01:44:39.816Z,98016.71
2019-02-26T01:47:08.074Z,98019.42
2019-02-26T01:49:36.476Z,98019.90
2019-02-26T01:52:06.288Z,98018.51
2019-02-26T01:54:37.042Z,98022.36
2019-02-26T01:57:27.230Z,98028.56
2019-02-26T01:59:54.579Z,98028.77
2019-02-26T02:02:25.387Z,98027.42
2019-02-26T02:10:03.234Z,98017.11
2019-02-26T02:15:46.590Z,98014.25
2019-02-26T02:18:18.214Z,98015.29
2019-02-26T02:20:58.520Z,98029.27
2019-02-26T02:23:28.034Z,98040.25
2019-02-26T02:25:59.720Z,98039.41
2019-02-26T02:28:28.566Z,98042.63
2019-02-26T02:30:57.263Z,98046.00
2019-02-26T02:33:28.962Z,98046.47
2019-02-26T02:38:30.457Z,98040.84
2019-02-26T02:43:33.204Z,98041.67
2019-02-26T02:46:21.021Z,98035.29
2019-02-26T02:48:49.418Z,98035.77
2019-02-26T02:51:17.816Z,98039.70
2019-02-26T02:56:20.079Z,98043.55
2019-02-26T03:01:24.504Z,98044.18
2019-02-26T03:03:53.879Z,98036.80
2019-02-26T03:06:24.269Z,98036.48
2019-02-26T03:08:53.501Z,98034.34
2019-02-26T03:11:22.719Z,98038.74
2019-02-26T03:13:51.909Z,98039.11
2019-02-26T03:16:21.992Z,98024.69
2019-02-26T03:21:27.774Z,98024.69
2019-02-26T03:26:31.722Z,98012.34
2019-02-26T03:31:35.014Z,98006.38
2019-02-26T03:34:25.392Z,97999.34
2019-02-26T03:36:53.285Z,97996.72
2019-02-26T03:39:21.686Z,97997.20
2019-02-26T03:41:51.090Z,97990.92
2019-02-26T03:44:20.253Z,97995.33
2019-02-26T03:46:48.645Z,97988.58
2019-02-26T03:49:20.053Z,97994.86
2019-02-26T03:51:48.446Z,97988.39
2019-02-26T03:54:16.838Z,97990.25
2019-02-26T03:56:45.430Z,97984.62
2019-02-26T03:59:13.843Z,97984.27
2019-02-26T04:01:42.234Z,97976.95
2019-02-26T04:04:10.721Z,97983.52
2019-02-26T04:06:41.156Z,97978.35
2019-02-26T04:09:11.170Z,97984.52
2019-02-26T04:11:44.777Z,97981.97
2019-02-26T04:14:12.672Z,97980.30
2019-02-26T04:16:41.117Z,97981.05
2019-02-26T04:19:10.193Z,97966.56
2019-02-26T04:22:15.817Z,97974.98
2019-02-26T04:24:45.100Z,97966.81
2019-02-26T04:27:41.221Z,97967.56
2019-02-26T04:30:34.063Z,97951.84
2019-02-26T04:33:22.843Z,97960.63
2019-02-26T04:36:02.877Z,97944.15
2019-02-26T04:38:36.886Z,97942.84
2019-02-26T04:41:06.862Z,97936.77
2019-02-26T04:44:06.241Z,97938.43
2019-02-26T04:46:40.625Z,97931.23
2019-02-26T04:49:09.022Z,97917.14
2019-02-26T04:51:39.889Z,97922.26
2019-02-26T04:54:08.374Z,97926.67
2019-02-26T04:56:39.583Z,97929.67
2019-02-26T04:59:09.379Z,97924.88
2019-02-26T05:01:37.277Z,97925.83
2019-02-26T05:04:05.681Z,97924.12
2019-02-26T05:06:34.329Z,97923.85
2019-02-26T05:09:05.457Z,97934.42
2019-02-26T05:11:37.122Z,97925.25
2019-02-26T05:14:03.706Z,97913.45
2019-02-26T05:16:34.730Z,97924.77
2019-02-26T05:19:02.380Z,97922.16
2019-02-26T05:21:33.266Z,97924.77
2019-02-26T05:24:02.970Z,97925.25
2019-02-26T05:26:31.162Z,97903.53
2019-02-26T05:28:59.575Z,97900.64
2019-02-26T05:31:29.762Z,97910.73
2019-02-26T05:34:00.063Z,97905.05
2019-02-26T05:36:28.582Z,97900.72
2019-02-26T05:39:00.371Z,97908.86
2019-02-26T05:41:28.527Z,97920.66
2019-02-26T05:43:58.275Z,97912.43
2019-02-26T05:46:29.449Z,97914.22
2019-02-26T05:48:57.241Z,97918.51
2019-02-26T05:51:27.458Z,97921.05
2019-02-26T05:53:55.945Z,97930.13
2019-02-26T05:56:24.348Z,97935.81
2019-02-26T05:58:52.774Z,97922.35
2019-02-26T06:01:22.494Z,97929.27
2019-02-26T06:03:51.881Z,97934.98
2019-02-26T06:06:20.483Z,97934.14
2019-02-26T06:08:48.877Z,97931.12
2019-02-26T06:11:17.292Z,97930.77
2019-02-26T06:13:45.841Z,97942.64
2019-02-26T06:16:14.232Z,97932.72
2019-02-26T06:18:44.006Z,97941.33
2019-02-26T06:21:13.792Z,97926.84
2019-02-26T06:23:45.671Z,97936.77
2019-02-26T06:26:16.743Z,97934.81
2019-02-26T06:28:48.024Z,97935.00
2019-02-26T06:31:17.582Z,97945.95
2019-02-26T06:33:47.761Z,97942.21
2019-02-26T06:36:18.610Z,97940.73
2019-02-26T06:38:49.601Z,97946.64
2019-02-26T06:41:16.962Z,97948.14
2019-02-26T06:43:48.360Z,97953.22
2019-02-26T06:46:15.512Z,97950.39
2019-02-26T06:48:46.809Z,97955.46
2019-02-26T06:51:15.772Z,97968.76
2019-02-26T06:53:47.144Z,97957.90
2019-02-26T06:56:16.034Z,97959.78
2019-02-26T06:58:44.996Z,97950.79
2019-02-26T07:01:14.746Z,97946.30
2019-02-26T07:03:44.242Z,97939.53
2019-02-26T07:06:12.659Z,97945.34
2019-02-26T07:08:42.112Z,97942.73
2019-02-26T07:11:11.164Z,97937.28
2019-02-26T07:13:41.257Z,97947.95
2019-02-26T07:16:09.817Z,97942.02
2019-02-26T07:18:38.679Z,97951.77
2019-02-26T07:21:07.125Z,97942.27
2019-02-26T07:23:37.610Z,97947.67
2019-02-26T07:26:05.633Z,97944.44
2019-02-26T07:28:34.182Z,97946.47
2019-02-26T07:31:03.293Z,97951.32
2019-02-26T07:33:34.701Z,97944.02
2019-02-26T07:36:04.175Z,97947.39
2019-02-26T07:38:40.983Z,97947.55
2019-02-26T07:41:03.783Z,97937.20
2019-02-26T07:43:36.635Z,97948.01
2019-02-26T07:46:03.059Z,97948.59
2019-02-26T07:48:33.567Z,97942.69
2019-02-26T07:51:01.618Z,97953.77
2019-02-26T07:53:30.105Z,97959.28
2019-02-26T07:55:59.587Z,97950.99
2019-02-26T07:58:30.900Z,97954.17
2019-02-26T08:00:58.818Z,97950.13
2019-02-26T08:03:29.295Z,97942.59
2019-02-26T08:05:59.280Z,97948.02
2019-02-26T08:08:27.518Z,97933.63
2019-02-26T08:10:55.973Z,97945.59
2019-02-26T08:13:28.543Z,97948.82
2019-02-26T08:15:55.842Z,97943.65
2019-02-26T08:18:24.876Z,97953.25
2019-02-26T08:20:56.869Z,97954.98
2019-02-26T08:23:24.535Z,97941.97
2019-02-26T08:25:55.486Z,97943.87
2019-02-26T08:28:24.894Z,97952.91
2019-02-26T08:30:55.224Z,97946.37
2019-02-26T08:33:23.588Z,97942.36
2019-02-26T08:35:55.522Z,97946.71
2019-02-26T08:38:22.258Z,97952.40
2019-02-26T08:40:50.702Z,97946.80
2019-02-26T08:43:19.204Z,97939.66
2019-02-26T08:45:49.272Z,97959.60
2019-02-26T08:48:19.699Z,97953.89
2019-02-26T08:50:47.962Z,97969.98
2019-02-26T08:53:16.359Z,97972.20
2019-02-26T08:55:44.762Z,97969.11
2019-02-26T08:58:13.370Z,97964.02
2019-02-26T09:00:41.763Z,97949.89
2019-02-26T09:03:10.837Z,97953.63
2019-02-26T09:05:40.309Z,97939.86
2019-02-26T09:08:10.885Z,97948.28
2019-02-26T09:10:41.159Z,97946.84
2019-02-26T09:13:11.338Z,97947.25
2019-02-26T09:15:41.386Z,97930.48
2019-02-26T09:18:09.475Z,97925.95
2019-02-26T09:20:38.093Z,97953.33
2019-02-26T09:23:06.554Z,97924.83
2019-02-26T09:25:34.956Z,97934.81
2019-02-26T09:28:03.536Z,97922.95
2019-02-26T09:30:33.940Z,97919.83
2019-02-26T09:33:03.428Z,97929.42
2019-02-26T09:35:33.129Z,97923.08
2019-02-26T09:38:01.598Z,97921.62
2019-02-26T09:40:33.445Z,97917.05
2019-02-26T09:43:00.306Z,97921.12
2019-02-26T09:45:30.180Z,97920.87
2019-02-26T09:48:01.006Z,97907.77
2019-02-26T09:50:28.840Z,97913.98
2019-02-26T09:52:59.114Z,97914.78
2019-02-26T09:55:27.425Z,97913.42
2019-02-26T09:57:55.968Z,97936.70
2019-02-26T10:00:27.186Z,97929.70
2019-02-26T10:02:54.529Z,97917.55
2019-02-26T10:05:23.336Z,97916.82
2019-02-26T10:07:54.353Z,97910.21
2019-02-26T10:10:25.347Z,97914.79
2019-02-26T10:12:55.904Z,97910.33
2019-02-26T10:15:23.709Z,97906.46
2019-02-26T10:17:52.110Z,97903.27
2019-02-26T10:20:26.194Z,97907.34
2019-02-26T10:22:57.217Z,97901.37
2019-02-26T10:25:27.943Z,97901.55
2019-02-26T10:27:54.875Z,97900.90
2019-02-26T10:30:23.362Z,97903.72
2019-02-26T10:32:51.898Z,97899.05
2019-02-26T10:35:32.609Z,97893.46
2019-02-26T10:38:02.161Z,97905.55
2019-02-26T10:40:35.076Z,97906.91
2019-02-26T10:42:58.920Z,97910.03
2019-02-26T10:45:36.101Z,97910.77
2019-02-26T10:48:01.952Z,97920.56
2019-02-26T10:50:31.863Z,97908.28
2019-02-26T10:53:07.225Z,97912.02
2019-02-26T10:55:38.058Z,97918.30
2019-02-26T10:58:04.674Z,97922.19
2019-02-26T11:00:34.634Z,97918.21
2019-02-26T11:03:01.741Z,97912.20
2019-02-26T11:05:30.305Z,97916.62
2019-02-26T11:08:01.869Z,97918.70
2019-02-26T11:10:30.445Z,97914.92
2019-02-26T11:12:59.775Z,97911.56
2019-02-26T11:15:31.088Z,97909.40
2019-02-26T11:17:58.645Z,97903.44
2019-02-26T11:20:30.002Z,97902.14
2019-02-26T11:22:57.198Z,97897.81
2019-02-26T11:25:27.384Z,97886.66
2019-02-26T11:27:55.812Z,97883.46
2019-02-26T11:30:29.071Z,97878.47
2019-02-26T11:32:58.598Z,97873.75
2019-02-26T11:35:27.445Z,97876.35
2019-02-26T11:37:57.733Z,97870.19
2019-02-26T11:40:28.209Z,97861.94
2019-02-26T11:42:59.615Z,97865.14
2019-02-26T11:45:27.351Z,97855.05
2019-02-26T11:47:58.007Z,97855.48
2019-02-26T11:50:28.051Z,97848.91
2019-02-26T11:52:57.026Z,97853.80
2019-02-26T11:55:26.917Z,97843.41
2019-02-26T11:57:55.795Z,97846.45
2019-02-26T12:00:50.414Z,97843.03
2019-02-26T12:03:18.188Z,97837.77
2019-02-26T12:05:46.610Z,97834.52
2019-02-26T12:08:17.397Z,97836.77
2019-02-26T12:10:45.192Z,97834.16
2019-02-26T12:13:14.661Z,97833.88
2019-02-26T12:15:44.320Z,97830.91
2019-02-26T12:18:14.949Z,97828.70
2019-02-26T12:20:43.596Z,97825.62
2019-02-26T12:23:15.979Z,97828.02
2019-02-26T12:25:43.214Z,97822.88
2019-02-26T12:28:13.645Z,97816.58
2019-02-26T12:30:43.909Z,97817.41
2019-02-26T12:33:14.323Z,97814.58
2019-02-26T12:35:43.654Z,97809.42
2019-02-26T12:38:18.163Z,97803.95
2019-02-26T12:40:44.688Z,97803.80
2019-02-26T12:43:16.311Z,97799.16
2019-02-26T12:45:43.056Z,97804.66
2019-02-26T12:48:15.620Z,97802.04
2019-02-26T12:50:41.592Z,97794.88
2019-02-26T12:53:12.710Z,97787.23
2019-02-26T12:55:42.301Z,97787.23
2019-02-26T12:58:11.284Z,97781.23
2019-02-26T13:00:42.170Z,97789.30
2019-02-26T13:03:12.833Z,97785.80
2019-02-26T13:05:42.460Z,97780.62
2019-02-26T13:08:13.407Z,97779.47
2019-02-26T13:10:43.534Z,97772.79
2019-02-26T13:13:11.601Z,97769.45
2019-02-26T13:15:40.031Z,97763.25
2019-02-26T13:18:08.440Z,97767.45
2019-02-26T13:20:36.843Z,97755.92
2019-02-26T13:23:17.033Z,97760.95
2019-02-26T13:25:35.549Z,97753.94
2019-02-26T13:28:04.038Z,97752.28
2019-02-26T13:30:32.464Z,97751.92
2019-02-26T13:33:04.985Z,97750.59
2019-02-26T13:35:31.032Z,97748.27
2019-02-26T13:38:01.592Z,97750.08
2019-02-26T13:40:37.899Z,97746.08
2019-02-26T13:45:29.524Z,97747.07
2019-02-26T13:48:01.326Z,97737.89
2019-02-26T13:50:33.817Z,97739.05
2019-02-26T13:53:02.215Z,97733.69
2019-02-26T13:55:30.751Z,97737.17
2019-02-26T13:57:59.409Z,97731.16
2019-02-26T14:00:27.881Z,97729.81
2019-02-26T14:02:56.284Z,97722.48
2019-02-26T14:05:24.719Z,97723.81
2019-02-26T14:07:54.034Z,97720.16
2019-02-26T14:10:26.013Z,97720.66
2019-02-26T14:12:54.422Z,97716.31
2019-02-26T14:15:24.447Z,97706.81
2019-02-26T14:17:53.306Z,97707.98
2019-02-26T14:20:21.886Z,97697.95
2019-02-26T14:22:50.278Z,97702.48
2019-02-26T14:25:18.807Z,97696.64
2019-02-26T14:27:47.221Z,97692.65
2019-02-26T14:30:19.789Z,97696.16
2019-02-26T14:32:48.545Z,97699.20
2019-02-26T14:35:17.084Z,97693.84
2019-02-26T14:37:45.550Z,97694.53
2019-02-26T14:40:18.778Z,97692.38
2019-02-26T14:42:47.515Z,97688.87
2019-02-26T14:45:20.254Z,97688.88
2019-02-26T14:47:48.741Z,97682.55
2019-02-26T14:50:21.647Z,97679.38
2019-02-26T14:52:50.114Z,97684.19
2019-02-26T14:55:18.942Z,97687.86
2019-02-26T14:57:47.344Z,97690.70
2019-02-26T15:00:21.098Z,97690.33
2019-02-26T15:02:49.819Z,97689.00
2019-02-26T15:05:18.218Z,97688.84
2019-02-26T15:07:46.634Z,97682.70
2019-02-26T15:10:15.793Z,97677.17
2019-02-26T15:12:44.188Z,97677.69
2019-02-26T15:15:15.126Z,97679.71
2019-02-26T15:17:43.975Z,97675.87
2019-02-26T15:20:14.606Z,97672.70
2019-02-26T15:22:43.003Z,97674.53
2019-02-26T15:25:17.122Z,97677.37
2019-02-26T15:27:45.513Z,97678.36
2019-02-26T15:30:16.355Z,97676.20
2019-02-26T15:32:44.971Z,97683.55
2019-02-26T15:35:13.909Z,97683.04
2019-02-26T15:37:42.488Z,97688.86
2019-02-26T15:40:15.551Z,97686.86
2019-02-26T15:42:43.953Z,97684.37
2019-02-26T15:45:20.907Z,97681.88
2019-02-26T15:47:50.122Z,97671.70
2019-02-26T15:50:20.335Z,97664.52
2019-02-26T15:52:52.715Z,97669.19
2019-02-26T15:55:25.913Z,97669.20
2019-02-26T15:57:55.005Z,97670.03
2019-02-26T16:00:24.705Z,97672.54
2019-02-26T16:02:53.837Z,97674.34
2019-02-26T16:05:27.731Z,97676.03
2019-02-26T16:07:56.131Z,97669.84
2019-02-26T16:10:24.529Z,97664.36
2019-02-26T16:12:52.966Z,97664.16
2019-02-26T16:15:21.378Z,97657.33
2019-02-26T16:17:49.915Z,97659.33
2019-02-26T16:20:19.896Z,97658.45
2019-02-26T16:22:48.366Z,97659.78
2019-02-26T16:25:16.928Z,97657.42
2019-02-26T16:27:45.329Z,97654.73
2019-02-26T16:30:17.017Z,97653.00
2019-02-26T16:32:45.579Z,97651.30
2019-02-26T16:35:15.109Z,97659.41
2019-02-26T16:37:57.727Z,97651.22
2019-02-26T16:40:32.420Z,97650.48
2019-02-26T16:43:00.911Z,97652.59
2019-02-26T16:45:34.304Z,97653.50
2019-02-26T16:47:59.841Z,97656.09
2019-02-26T16:50:30.481Z,97658.03
2019-02-26T16:53:00.450Z,97655.77
2019-02-26T16:55:29.350Z,97659.66
2019-02-26T16:58:02.123Z,97661.34
2019-02-26T17:00:29.395Z,97669.72
2019-02-26T17:03:00.797Z,97668.25
2019-02-26T17:05:28.130Z,97670.12
2019-02-26T17:07:56.891Z,97671.15
2019-02-26T17:10:29.083Z,97675.00
2019-02-26T17:12:56.649Z,97675.75
2019-02-26T17:15:32.002Z,97680.83
2019-02-26T17:18:00.462Z,97676.94
2019-02-26T17:20:28.945Z,97680.33
2019-02-26T17:22:57.462Z,97686.91
2019-02-26T17:25:28.611Z,97684.77
2019-02-26T17:27:56.295Z,97689.83
2019-02-26T17:30:24.873Z,97676.87
2019-02-26T17:32:53.546Z,97689.64
2019-02-26T17:35:22.170Z,97690.03
2019-02-26T17:37:50.867Z,97684.94
2019-02-26T17:40:23.410Z,97688.86
2019-02-26T17:42:51.948Z,97693.61
2019-02-26T17:45:25.282Z,97690.47
2019-02-26T17:47:56.561Z,97689.89
2019-02-26T17:50:38.260Z,97692.37
2019-02-26T17:53:07.003Z,97703.41
2019-02-26T17:55:35.620Z,97701.52
2019-02-26T17:58:04.237Z,97702.98
2019-02-26T18:00:37.309Z,97700.63
2019-02-26T18:03:07.237Z,97699.77
2019-02-26T18:05:39.360Z,97702.22
2019-02-26T18:08:06.182Z,97702.02
2019-02-26T18:10:36.577Z,97714.06
2019-02-26T18:13:05.078Z,97709.19
2019-02-26T18:15:33.547Z,97707.56
2019-02-26T18:18:01.959Z,97709.44
2019-02-26T18:20:30.563Z,97714.42
2019-02-26T18:23:00.155Z,97714.71
2019-02-26T18:25:29.329Z,97712.45
2019-02-26T18:27:57.750Z,97715.89
2019-02-26T18:30:30.209Z,97719.91
2019-02-26T18:33:01.156Z,97713.64
2019-02-26T18:35:29.672Z,97716.06
2019-02-26T18:37:58.083Z,97711.97
2019-02-26T18:40:28.281Z,97707.83
2019-02-26T18:42:56.767Z,97711.00
2019-02-26T18:45:45.955Z,97711.50
2019-02-26T18:48:15.704Z,97717.16
2019-02-26T18:50:53.780Z,97714.52
2019-02-26T18:53:22.284Z,97714.42
2019-02-26T18:55:50.685Z,97712.03
2019-02-26T18:58:20.582Z,97706.41
2019-02-26T19:00:49.011Z,97710.62
2019-02-26T19:03:17.405Z,97710.16
2019-02-26T19:05:45.813Z,97714.89
2019-02-26T19:08:14.243Z,97720.92
2019-02-26T19:10:42.646Z,97728.75
2019-02-26T19:13:11.047Z,97731.27
2019-02-26T19:15:39.493Z,97724.45
2019-02-26T19:18:07.963Z,97714.89
2019-02-26T19:20:37.995Z,97718.17
2019-02-26T19:23:06.496Z,97713.74
2019-02-26T19:25:35.059Z,97714.35
2019-02-26T19:28:03.560Z,97721.08
2019-02-26T19:30:32.332Z,97721.47
2019-02-26T19:33:03.495Z,97723.15
2019-02-26T19:35:34.811Z,97719.09
2019-02-26T19:38:03.879Z,97721.14
2019-02-26T19:40:41.224Z,97718.77
2019-02-26T19:43:09.927Z,97718.55
2019-02-26T19:45:38.417Z,97713.39
2019-02-26T19:48:06.812Z,97706.08
2019-02-26T19:50:35.269Z,97703.55
2019-02-26T19:53:03.672Z,97701.41
2019-02-26T19:55:40.415Z,97701.86
2019-02-26T19:58:09.078Z,97705.22
2019-02-26T20:00:37.621Z,97699.47
2019-02-26T20:03:06.280Z,97697.30
2019-02-26T20:05:34.775Z,97689.96
2019-02-26T20:08:05.233Z,97690.21
2019-02-26T20:10:33.423Z,97688.89
2019-02-26T20:13:03.897Z,97685.77
2019-02-26T20:15:31.951Z,97683.00
2019-02-26T20:18:00.511Z,97684.17
2019-02-26T20:20:28.915Z,97680.09
2019-02-26T20:22:57.315Z,97680.58
2019-02-26T20:25:26.278Z,97671.83
2019-02-26T20:27:57.965Z,97676.40
2019-02-26T20:30:25.115Z,97667.77
2019-02-26T20:32:53.629Z,97663.44
2019-02-26T20:35:22.016Z,97665.37
2019-02-26T20:37:50.473Z,97663.44
2019-02-26T20:40:25.567Z,97660.40
2019-02-26T20:42:53.958Z,97660.40
2019-02-26T20:45:22.846Z,97653.46
2019-02-26T20:47:51.342Z,97654.66
2019-02-26T20:50:21.109Z,97649.01
2019-02-26T20:52:49.880Z,97654.29
2019-02-26T20:55:23.879Z,97649.72
2019-02-26T20:57:52.283Z,97641.80
2019-02-26T21:00:24.998Z,97637.31
2019-02-26T21:02:51.392Z,97638.76
2019-02-26T21:05:19.874Z,97639.47
2019-02-26T21:07:49.634Z,97648.44
2019-02-26T21:10:19.528Z,97645.18
2019-02-26T21:12:47.929Z,97640.14
2019-02-26T21:15:21.715Z,97632.68
2019-02-26T21:17:50.135Z,97633.88
2019-02-26T21:20:18.530Z,97629.91
2019-02-26T21:22:46.985Z,97627.18
2019-02-26T21:25:15.946Z,97637.53
2019-02-26T21:27:44.407Z,97630.84
2019-02-26T21:30:20.293Z,97629.64
2019-02-26T21:32:52.125Z,97623.98
2019-02-26T21:35:21.386Z,97625.92
2019-02-26T21:37:49.932Z,97631.48
2019-02-26T21:40:18.354Z,97627.77
2019-02-26T21:42:46.813Z,97628.00
2019-02-26T21:45:19.605Z,97629.48
2019-02-26T21:47:48.844Z,97628.98
2019-02-26T21:50:17.306Z,97631.25
2019-02-26T21:52:59.191Z,97643.63
2019-02-26T21:55:17.672Z,97641.60
2019-02-26T21:57:46.342Z,97635.00
2019-02-26T22:00:17.859Z,97641.62
2019-02-26T22:02:46.619Z,97648.13
2019-02-26T22:05:15.079Z,97650.18
2019-02-26T22:07:43.469Z,97643.09
2019-02-26T22:10:14.519Z,97644.17
2019-02-26T22:12:43.176Z,97645.37
2019-02-26T22:15:14.224Z,97646.20
2019-02-26T22:17:42.750Z,97649.20
2019-02-26T22:20:22.057Z,97646.20
2019-02-26T22:22:43.900Z,97649.82
2019-02-26T22:25:16.944Z,97656.66
2019-02-26T22:27:43.603Z,97650.18
2019-02-26T22:30:21.548Z,97655.83
2019-02-26T22:32:47.825Z,97659.91
2019-02-26T22:35:16.497Z,97653.70
2019-02-26T22:37:44.875Z,97658.23
2019-02-26T22:40:14.549Z,97664.98
2019-02-26T22:42:43.187Z,97667.26
2019-02-26T22:45:14.160Z,97661.64
2019-02-26T22:47:44.032Z,97667.26
2019-02-26T22:50:14.895Z,97658.75
2019-02-26T22:52:43.449Z,97660.19
2019-02-26T22:55:16.510Z,97661.28
2019-02-26T22:57:44.144Z,97665.52
2019-02-26T23:00:48.396Z,97670.31
2019-02-26T23:03:14.343Z,97679.18
2019-02-26T23:05:42.980Z,97678.13
2019-02-26T23:08:12.470Z,97676.80
2019-02-26T23:10:41.400Z,97678.47
2019-02-26T23:13:09.938Z,97681.97
2019-02-26T23:15:38.364Z,97681.36
2019-02-26T23:18:07.700Z,97664.92
2019-02-26T23:20:36.779Z,97666.45
2019-02-26T23:23:05.359Z,97666.45
2019-02-26T23:25:35.940Z,97670.20
2019-02-26T23:28:04.775Z,97658.93
2019-02-26T23:30:33.267Z,97647.78
2019-02-26T23:33:01.727Z,97651.14
2019-02-26T23:35:30.191Z,97662.30
2019-02-26T23:37:58.850Z,97655.72
2019-02-26T23:40:28.106Z,97655.01
2019-02-26T23:42:56.792Z,97654.90
2019-02-26T23:45:25.500Z,97655.13
2019-02-26T23:47:53.923Z,97652.77
2019-02-26T23:50:22.304Z,97650.12
2019-02-26T23:52:50.723Z,97660.90
2019-02-26T23:55:19.103Z,97656.83
2019-02-26T23:57:47.534Z,97661.84
